createdAt,value
2023-03-22T00:01:12.044Z,2.50
2023-03-22T00:04:14.398Z,2.22
2023-03-22T00:07:16.810Z,2.67
2023-03-22T00:10:19.145Z,2.30
2023-03-22T00:13:21.480Z,2.50
2023-03-22T00:16:23.918Z,2.75
2023-03-22T00:19:26.733Z,2.40
2023-03-22T00:22:29.082Z,2.30
2023-03-22T00:25:31.489Z,2.33
2023-03-22T00:28:34.622Z,2.45
2023-03-22T00:31:37.068Z,2.35
2023-03-22T00:34:39.462Z,2.40
2023-03-22T00:37:41.782Z,2.57
2023-03-22T00:40:44.445Z,2.70
2023-03-22T00:43:47.364Z,2.67
2023-03-22T00:46:49.728Z,2.55
2023-03-22T00:49:52.106Z,2.25
2023-03-22T00:52:54.448Z,2.10
2023-03-22T00:55:57.424Z,2.53
2023-03-22T00:59:00.403Z,2.28
2023-03-22T01:02:04.291Z,2.13
2023-03-22T01:05:07.332Z,1.98
2023-03-22T01:08:10.488Z,2.20
2023-03-22T01:11:13.154Z,2.00
2023-03-22T01:14:15.546Z,2.22
2023-03-22T01:17:17.981Z,2.10
2023-03-22T01:20:20.462Z,2.00
2023-03-22T01:23:22.840Z,2.13
2023-03-22T01:26:25.652Z,1.90
2023-03-22T01:29:28.202Z,2.38
2023-03-22T01:32:30.595Z,2.35
2023-03-22T01:35:33.888Z,2.25
2023-03-22T01:38:36.552Z,2.20
2023-03-22T01:41:39.370Z,2.30
2023-03-22T01:45:14.396Z,2.65
2023-03-22T01:48:34.285Z,2.40
2023-03-22T01:51:53.780Z,2.38
2023-03-22T01:55:09.846Z,2.53
2023-03-22T01:58:19.795Z,2.53
2023-03-22T02:01:31.066Z,2.45
2023-03-22T02:04:39.300Z,3.00
2023-03-22T02:07:44.198Z,2.53
2023-03-22T02:10:47.082Z,2.70
2023-03-22T02:14:14.766Z,2.70
2023-03-22T02:17:53.701Z,2.55
2023-03-22T02:21:26.999Z,2.40
2023-03-22T02:25:00.326Z,2.72
2023-03-22T02:28:36.711Z,2.20
2023-03-22T02:32:06.892Z,2.33
2023-03-22T02:35:33.571Z,2.08
2023-03-22T02:38:57.835Z,2.05
2023-03-22T02:42:17.414Z,2.20
2023-03-22T02:45:31.763Z,2.13
2023-03-22T02:48:54.316Z,2.90
2023-03-22T02:52:07.291Z,2.40
2023-03-22T02:55:19.097Z,2.10
2023-03-22T02:58:26.604Z,2.50
2023-03-22T03:01:34.383Z,2.33
2023-03-22T03:04:41.631Z,2.70
2023-03-22T03:07:48.920Z,2.50
2023-03-22T03:10:51.921Z,2.90
2023-03-22T03:13:54.542Z,2.85
2023-03-22T03:17:28.174Z,2.70
2023-03-22T03:20:39.838Z,2.73
2023-03-22T03:23:49.642Z,2.65
2023-03-22T03:26:58.472Z,2.10
2023-03-22T03:30:17.193Z,2.80
2023-03-22T03:33:22.479Z,2.40
2023-03-22T03:36:26.998Z,2.30
2023-03-22T03:39:33.469Z,1.83
2023-03-22T03:42:37.791Z,2.20
2023-03-22T03:45:40.809Z,2.67
2023-03-22T03:48:47.110Z,2.50
2023-03-22T03:51:52.619Z,2.37
2023-03-22T03:54:55.287Z,2.67
2023-03-22T03:58:03.516Z,2.17
2023-03-22T04:01:06.180Z,2.78
2023-03-22T04:04:31.229Z,2.63
2023-03-22T04:07:37.452Z,2.20
2023-03-22T04:10:40.099Z,2.20
2023-03-22T04:13:42.657Z,2.00
2023-03-22T04:16:49.373Z,2.25
2023-03-22T04:19:57.182Z,2.33
2023-03-22T04:23:00.327Z,2.00
2023-03-22T04:26:03.776Z,2.17
2023-03-22T04:29:16.362Z,2.20
2023-03-22T04:32:26.306Z,2.08
2023-03-22T04:35:30.415Z,1.80
2023-03-22T04:38:33.876Z,1.80
2023-03-22T04:41:37.233Z,1.95
2023-03-22T04:44:39.659Z,2.10
2023-03-22T04:47:42.207Z,2.58
2023-03-22T04:50:45.661Z,2.50
2023-03-22T04:53:48.116Z,2.40
2023-03-22T04:56:50.933Z,2.35
2023-03-22T04:59:55.374Z,2.33
2023-03-22T05:02:58.499Z,2.00
2023-03-22T05:06:10.397Z,2.13
2023-03-22T05:09:23.494Z,2.10
2023-03-22T05:12:28.578Z,2.10
2023-03-22T05:15:39.761Z,2.10
2023-03-22T05:18:45.626Z,2.25
2023-03-22T05:21:48.810Z,2.53
2023-03-22T05:24:51.368Z,2.50
2023-03-22T05:28:03.596Z,2.50
2023-03-22T05:31:22.664Z,1.75
2023-03-22T05:34:35.877Z,1.65
2023-03-22T05:37:49.426Z,1.40
2023-03-22T05:40:54.448Z,1.80
2023-03-22T05:43:57.457Z,1.98
2023-03-22T05:47:00.114Z,2.42
2023-03-22T05:50:02.609Z,2.38
2023-03-22T05:53:07.070Z,2.70
2023-03-22T05:56:47.691Z,3.50
2023-03-22T05:59:53.930Z,3.45
2023-03-22T06:03:03.747Z,3.78
2023-03-22T06:06:10.826Z,4.60
2023-03-22T06:09:23.615Z,4.93
2023-03-22T06:12:30.064Z,5.20
2023-03-22T06:15:41.727Z,5.78
2023-03-22T06:18:46.407Z,6.13
2023-03-22T06:21:48.778Z,6.53
2023-03-22T06:24:52.413Z,6.20
2023-03-22T06:28:08.799Z,6.57
2023-03-22T06:31:13.355Z,6.95
2023-03-22T06:34:24.435Z,6.72
2023-03-22T06:37:27.026Z,6.13
2023-03-22T06:40:30.725Z,6.63
2023-03-22T06:43:33.234Z,6.50
2023-03-22T06:46:47.882Z,6.10
2023-03-22T06:50:14.939Z,6.10
2023-03-22T06:53:37.631Z,6.50
2023-03-22T06:56:40.473Z,6.23
2023-03-22T06:59:43.480Z,6.27
2023-03-22T07:02:46.114Z,5.80
2023-03-22T07:06:07.277Z,5.63
2023-03-22T07:09:13.265Z,6.00
2023-03-22T07:12:16.193Z,6.27
2023-03-22T07:15:24.277Z,6.53
2023-03-22T07:18:36.860Z,6.00
2023-03-22T07:21:40.005Z,6.28
2023-03-22T07:24:57.027Z,6.07
2023-03-22T07:28:01.768Z,6.23
2023-03-22T07:31:07.928Z,6.47
2023-03-22T07:34:20.850Z,5.63
2023-03-22T07:37:46.429Z,6.10
2023-03-22T07:40:57.625Z,6.50
2023-03-22T07:44:17.738Z,6.10
2023-03-22T07:47:42.617Z,6.37
2023-03-22T07:50:56.765Z,5.57
2023-03-22T07:54:01.691Z,6.50
2023-03-22T07:57:05.462Z,5.80
2023-03-22T08:00:12.191Z,5.63
2023-03-22T08:03:37.836Z,5.40
2023-03-22T08:06:49.985Z,5.50
2023-03-22T08:09:52.792Z,5.28
2023-03-22T08:12:55.479Z,4.95
2023-03-22T08:16:01.140Z,5.27
2023-03-22T08:19:03.621Z,6.20
2023-03-22T08:22:10.152Z,5.05
2023-03-22T08:25:32.494Z,5.10
2023-03-22T08:28:51.150Z,5.30
2023-03-22T08:31:54.281Z,4.90
2023-03-22T08:34:56.751Z,4.80
2023-03-22T08:37:59.363Z,4.88
2023-03-22T08:41:10.844Z,5.28
2023-03-22T08:44:13.368Z,4.97
2023-03-22T08:47:16.902Z,5.20
2023-03-22T08:50:20.180Z,4.50
2023-03-22T08:53:29.999Z,4.75
2023-03-22T08:56:52.090Z,4.80
2023-03-22T09:00:25.113Z,5.05
2023-03-22T09:03:40.562Z,4.60
2023-03-22T09:06:45.459Z,4.50
2023-03-22T09:09:47.899Z,4.45
2023-03-22T09:12:50.833Z,4.45
2023-03-22T09:15:53.354Z,4.15
2023-03-22T09:19:02.496Z,4.30
2023-03-22T09:22:06.271Z,4.77
2023-03-22T09:25:17.056Z,4.43
2023-03-22T09:28:24.053Z,3.85
2023-03-22T09:31:30.949Z,4.28
2023-03-22T09:34:44.085Z,4.50
2023-03-22T09:37:55.619Z,4.17
2023-03-22T09:41:06.806Z,3.83
2023-03-22T09:44:15.520Z,4.40
2023-03-22T09:47:43.901Z,5.82
2023-03-22T09:50:52.780Z,6.37
2023-03-22T09:53:55.386Z,6.40
2023-03-22T09:57:06.774Z,6.32
2023-03-22T10:00:44.729Z,6.15
2023-03-22T10:03:47.255Z,5.95
2023-03-22T10:06:59.987Z,6.37
2023-03-22T10:10:13.451Z,5.97
2023-03-22T10:13:18.029Z,6.25
2023-03-22T10:16:28.691Z,5.80
2023-03-22T10:19:35.788Z,5.72
2023-03-22T10:22:43.193Z,5.47
2023-03-22T10:25:46.470Z,5.90
2023-03-22T10:29:06.054Z,5.53
2023-03-22T10:32:54.786Z,6.25
2023-03-22T10:35:59.772Z,6.07
2023-03-22T10:39:29.282Z,5.87
2023-03-22T10:42:31.948Z,5.33
2023-03-22T10:45:36.507Z,5.13
2023-03-22T10:48:42.516Z,5.55
2023-03-22T10:51:49.994Z,6.85
2023-03-22T10:54:52.614Z,5.57
2023-03-22T10:57:59.635Z,5.33
2023-03-22T11:01:09.211Z,5.22
2023-03-22T11:04:15.792Z,5.22
2023-03-22T11:07:44.356Z,4.55
2023-03-22T11:10:51.356Z,4.47
2023-03-22T11:14:15.249Z,4.80
2023-03-22T11:17:23.810Z,5.00
2023-03-22T11:20:26.324Z,4.78
2023-03-22T11:23:32.809Z,4.57
2023-03-22T11:26:40.702Z,4.40
2023-03-22T11:29:47.362Z,4.80
2023-03-22T11:33:09.994Z,4.35
2023-03-22T11:36:18.101Z,4.28
2023-03-22T11:39:23.869Z,4.60
2023-03-22T11:42:26.577Z,4.70
2023-03-22T11:45:31.729Z,4.73
2023-03-22T11:48:35.032Z,4.25
2023-03-22T11:51:39.148Z,4.43
2023-03-22T11:54:42.650Z,4.60
2023-03-22T11:57:45.785Z,4.33
2023-03-22T12:00:52.475Z,4.03
2023-03-22T12:03:57.061Z,4.22
2023-03-22T12:07:00.665Z,4.32
2023-03-22T12:10:12.630Z,4.63
2023-03-22T12:13:21.308Z,4.87
2023-03-22T12:16:28.709Z,4.20
2023-03-22T12:19:31.205Z,4.43
2023-03-22T12:22:37.702Z,4.38
2023-03-22T12:25:40.779Z,4.15
2023-03-22T12:28:56.485Z,3.87
2023-03-22T12:32:03.478Z,3.83
2023-03-22T12:35:17.253Z,4.28
2023-03-22T12:38:27.881Z,3.90
2023-03-22T12:41:39.031Z,4.40
2023-03-22T12:44:52.759Z,4.00
2023-03-22T12:48:45.181Z,4.93
2023-03-22T12:51:49.273Z,4.65
2023-03-22T12:54:52.594Z,4.63
2023-03-22T12:57:55.710Z,4.90
2023-03-22T13:01:06.528Z,4.97
2023-03-22T13:04:35.795Z,4.87
2023-03-22T13:07:45.970Z,4.85
2023-03-22T13:11:01.900Z,4.60
2023-03-22T13:14:04.297Z,4.68
2023-03-22T13:17:07.444Z,4.30
2023-03-22T13:20:13.677Z,4.70
2023-03-22T13:23:26.559Z,4.45
2023-03-22T13:26:32.847Z,4.72
2023-03-22T13:29:36.574Z,5.13
2023-03-22T13:32:51.647Z,4.40
2023-03-22T13:36:07.035Z,4.27
2023-03-22T13:39:12.519Z,3.92
2023-03-22T13:42:19.534Z,4.50
2023-03-22T13:45:33.598Z,4.15
2023-03-22T13:49:02.500Z,3.97
2023-03-22T13:52:07.693Z,4.00
2023-03-22T13:55:38.113Z,3.75
2023-03-22T13:58:46.715Z,4.20
2023-03-22T14:02:15.904Z,4.05
2023-03-22T14:05:22.432Z,3.90
2023-03-22T14:08:28.546Z,3.97
2023-03-22T14:12:01.570Z,3.83
2023-03-22T14:15:05.325Z,4.13
2023-03-22T14:18:33.654Z,3.75
2023-03-22T14:21:42.925Z,3.90
